Weather at Naxos Airport

Public forecast

Using degrees Celsius for public forecast. Weather courtesy of forecast.io.

Current aviation weather report (METAR) for Naxos Airport

Report is more than 6 hours old.

Retrieved 2021/04/12 13:50 UTC (8 hours ago):

LGNX 121350Z 01007KT CAVOK 17/02 Q1022

Closest aviation forecast (TAF) to Naxos Airport

Forecast is more than 12 hours old.

Closest forecast is Mikonos Airport, 21.3 nm (39.4 km) N. Retrieved 2012/09/27 00:18 UTC (9 years ago):

TAF TAF LGMK 272300Z 2800/2909 36016KT 9999 FEW020